createdAt,value
2022-11-03T19:41:56.052Z,98253.56
2022-11-03T19:44:22.432Z,98245.47
2022-11-03T19:46:51.065Z,98244.63
2022-11-03T19:49:17.405Z,98245.28
2022-11-03T19:51:43.840Z,98239.03
2022-11-03T19:54:17.235Z,98237.34
2022-11-03T19:56:43.961Z,98242.34
2022-11-03T19:59:11.815Z,98237.75
2022-11-03T20:01:38.218Z,98240.22
2022-11-03T20:04:05.497Z,98232.28
2022-11-03T20:06:34.124Z,98235.63
2022-11-03T20:09:02.056Z,98235.47
2022-11-03T20:11:28.384Z,98245.09
2022-11-03T20:13:54.697Z,98237.13
2022-11-03T20:16:21.057Z,98241.44
2022-11-03T20:18:48.751Z,98249.38
2022-11-03T20:21:16.970Z,98244.94
2022-11-03T20:23:44.737Z,98232.50
2022-11-03T20:26:16.267Z,98237.81
2022-11-03T20:28:42.804Z,98237.81
2022-11-03T20:31:11.664Z,98228.06
2022-11-03T20:33:38.790Z,98236.84
2022-11-03T20:36:06.065Z,98227.22
2022-11-03T20:38:33.222Z,98228.19
2022-11-03T20:41:03.885Z,98231.00
2022-11-03T20:43:34.573Z,98231.84
2022-11-03T20:46:01.470Z,98228.34
2022-11-03T20:48:28.108Z,98230.84
2022-11-03T20:50:54.764Z,98228.34
2022-11-03T20:53:23.456Z,98235.47
2022-11-03T20:55:51.015Z,98228.34
2022-11-03T20:58:17.998Z,98227.53
2022-11-03T21:00:45.917Z,98231.00
2022-11-03T21:03:31.282Z,98229.34
2022-11-03T21:06:01.748Z,98217.75
2022-11-03T21:08:28.029Z,98215.28
2022-11-03T21:10:54.468Z,98213.59
2022-11-03T21:13:20.880Z,98211.94
2022-11-03T21:16:23.668Z,98205.00
2022-11-03T21:19:09.355Z,98200.84
2022-11-03T21:21:35.670Z,98195.22
2022-11-03T21:24:01.953Z,98198.19
2022-11-03T21:26:28.263Z,98202.78
2022-11-03T21:28:54.569Z,98203.78
2022-11-03T21:31:20.891Z,98199.63
2022-11-03T21:33:47.191Z,98196.13
2022-11-03T21:36:13.526Z,98196.13
2022-11-03T21:38:39.859Z,98197.97
2022-11-03T21:41:26.623Z,98194.47
2022-11-03T21:44:11.540Z,98188.03
2022-11-03T21:46:38.604Z,98181.94
2022-11-03T21:49:23.331Z,98172.16
2022-11-03T21:51:49.642Z,98175.63
2022-11-03T21:54:15.972Z,98175.63
2022-11-03T21:56:42.330Z,98180.09
2022-11-03T21:59:08.660Z,98178.44
2022-11-03T22:01:35.092Z,98173.13
2022-11-03T22:04:01.506Z,98176.78
2022-11-03T22:06:28.119Z,98172.28
2022-11-03T22:08:54.403Z,98186.53
2022-11-03T22:11:23.457Z,98180.38
2022-11-03T22:13:56.623Z,98186.69
2022-11-03T22:16:42.374Z,98183.72
2022-11-03T22:19:51.207Z,98192.66
2022-11-03T22:22:36.010Z,98189.69
2022-11-03T22:25:20.972Z,98177.44
2022-11-03T22:27:47.426Z,98174.78
2022-11-03T22:30:32.476Z,98167.00
2022-11-03T22:32:58.863Z,98168.84
2022-11-03T22:35:44.449Z,98168.84
2022-11-03T22:38:13.431Z,98175.09
2022-11-03T22:41:01.384Z,98180.56
2022-11-03T22:43:46.474Z,98170.28
2022-11-03T22:46:14.437Z,98179.03
2022-11-03T22:48:40.937Z,98166.13
2022-11-03T22:51:09.028Z,98159.16
2022-11-03T22:53:55.410Z,98157.47
2022-11-03T22:56:25.029Z,98162.91
2022-11-03T22:58:51.864Z,98173.50
2022-11-03T23:01:23.800Z,98172.16
2022-11-03T23:03:50.312Z,98161.41
2022-11-03T23:06:19.057Z,98176.63
2022-11-03T23:08:47.248Z,98183.56
2022-11-03T23:11:16.964Z,98185.38
2022-11-03T23:13:43.867Z,98194.16
2022-11-03T23:16:21.882Z,98172.47
2022-11-03T23:19:07.541Z,98158.91
2022-11-03T23:21:35.341Z,98161.56
2022-11-03T23:24:20.362Z,98165.19
2022-11-03T23:26:47.519Z,98167.03
2022-11-03T23:29:14.958Z,98163.69
2022-11-03T23:31:42.998Z,98174.41
2022-11-03T23:34:10.564Z,98178.06
2022-11-03T23:36:37.292Z,98179.84
2022-11-03T23:39:04.720Z,98179.03
2022-11-03T23:41:31.087Z,98174.75
2022-11-03T23:43:57.852Z,98175.41
2022-11-03T23:46:45.985Z,98171.91
2022-11-03T23:49:13.625Z,98155.06
2022-11-03T23:51:41.820Z,98154.94
2022-11-03T23:54:10.525Z,98153.09
2022-11-03T23:56:57.908Z,98161.88
2022-11-03T23:59:25.146Z,98150.97
